createdAt,value
2022-10-21T00:04:19.679Z,4.50
2022-10-21T00:09:50.721Z,5.68
2022-10-21T00:15:21.638Z,4.60
2022-10-21T00:20:52.647Z,4.75
2022-10-21T00:26:23.568Z,7.43
2022-10-21T00:31:54.809Z,4.80
2022-10-21T00:37:25.868Z,4.00
2022-10-21T00:42:57.591Z,5.43
2022-10-21T00:48:51.933Z,6.15
2022-10-21T00:54:24.091Z,4.65
2022-10-21T00:59:58.686Z,5.22
2022-10-21T01:05:31.058Z,7.88
2022-10-21T01:11:02.534Z,4.68
2022-10-21T01:16:48.648Z,5.13
2022-10-21T01:22:50.857Z,5.22
2022-10-21T01:29:02.444Z,5.28
2022-10-21T01:34:38.246Z,5.40
2022-10-21T01:40:15.203Z,5.85
2022-10-21T01:45:57.252Z,5.72
2022-10-21T01:51:29.314Z,5.43
2022-10-21T01:57:02.028Z,5.18
2022-10-21T02:02:35.439Z,6.10
2022-10-21T02:08:07.728Z,5.45
2022-10-21T02:13:51.875Z,5.63
2022-10-21T02:19:22.823Z,5.00
2022-10-21T02:25:01.098Z,5.30
2022-10-21T02:30:39.106Z,5.82
2022-10-21T02:36:45.394Z,5.05
2022-10-21T02:42:24.718Z,5.97
2022-10-21T02:47:56.295Z,6.07
2022-10-21T02:53:27.445Z,6.40
2022-10-21T02:58:58.606Z,6.15
2022-10-21T03:04:29.868Z,5.78
2022-10-21T03:10:00.555Z,5.18
2022-10-21T03:15:31.650Z,7.07
2022-10-21T03:21:02.853Z,6.15
2022-10-21T03:26:33.810Z,5.57
2022-10-21T03:32:05.129Z,5.03
2022-10-21T03:37:36.327Z,7.32
2022-10-21T03:43:07.220Z,6.70
2022-10-21T03:48:38.540Z,5.65
2022-10-21T03:54:09.447Z,6.60
2022-10-21T03:59:40.366Z,5.50
2022-10-21T04:05:12.001Z,6.15
2022-10-21T04:10:42.906Z,5.05
2022-10-21T04:16:17.347Z,7.75
2022-10-21T04:21:48.414Z,6.78
2022-10-21T04:27:19.437Z,5.50
2022-10-21T04:32:51.099Z,6.68
2022-10-21T04:38:26.686Z,4.75
2022-10-21T04:43:57.829Z,7.20
2022-10-21T04:49:29.053Z,5.82
2022-10-21T04:54:59.912Z,5.93
2022-10-21T05:00:30.951Z,6.55
2022-10-21T05:06:01.933Z,8.15
2022-10-21T05:11:32.859Z,6.32
2022-10-21T05:17:04.270Z,6.45
2022-10-21T05:22:35.206Z,7.65
2022-10-21T05:28:06.327Z,6.50
2022-10-21T05:33:37.213Z,7.28
2022-10-21T05:39:11.584Z,27.98
2022-10-21T05:44:43.065Z,46.20
2022-10-21T05:50:14.425Z,25.70
2022-10-21T05:55:45.354Z,25.40
2022-10-21T06:01:16.161Z,25.15
2022-10-21T06:06:47.714Z,17.02
2022-10-21T06:12:19.053Z,18.33
2022-10-21T06:17:51.877Z,19.25
2022-10-21T06:23:23.375Z,17.10
2022-10-21T06:28:54.720Z,14.68
2022-10-21T06:34:25.963Z,17.08
2022-10-21T06:39:57.471Z,13.48
2022-10-21T06:45:28.679Z,13.45
2022-10-21T06:51:01.802Z,14.57
2022-10-21T06:56:32.986Z,11.57
2022-10-21T07:02:03.878Z,12.75
2022-10-21T07:07:35.068Z,9.93
2022-10-21T07:13:06.457Z,12.73
2022-10-21T07:18:40.535Z,10.07
2022-10-21T07:24:16.294Z,11.43
2022-10-21T07:29:48.874Z,10.65
2022-10-21T07:35:19.712Z,9.70
2022-10-21T07:40:50.754Z,9.90
2022-10-21T07:46:22.824Z,11.18
2022-10-21T07:51:54.471Z,9.50
2022-10-21T07:57:25.978Z,12.88
2022-10-21T08:02:57.542Z,8.68
2022-10-21T08:08:28.809Z,8.95
2022-10-21T08:14:00.602Z,7.47
2022-10-21T08:19:31.597Z,8.63
2022-10-21T08:25:03.128Z,8.15
2022-10-21T08:30:34.070Z,7.90
2022-10-21T08:36:06.735Z,6.85
2022-10-21T08:41:44.091Z,6.63
2022-10-21T08:47:31.243Z,8.13
2022-10-21T08:53:15.443Z,11.45
2022-10-21T08:58:48.827Z,7.47
2022-10-21T09:04:27.688Z,9.27
2022-10-21T09:10:07.467Z,6.40
2022-10-21T09:15:53.923Z,5.78
2022-10-21T09:21:39.647Z,6.63
2022-10-21T09:27:11.196Z,7.28
2022-10-21T09:32:43.482Z,5.80
2022-10-21T09:38:48.594Z,5.20
2022-10-21T09:44:23.365Z,6.63
2022-10-21T09:50:07.240Z,6.68
2022-10-21T10:01:16.987Z,5.07
2022-10-21T10:06:48.424Z,5.07
2022-10-21T10:12:25.104Z,6.20
2022-10-21T10:17:57.599Z,8.20
2022-10-21T10:23:28.869Z,6.00
2022-10-21T10:29:10.139Z,4.65
2022-10-21T10:34:53.446Z,5.18
2022-10-21T10:40:42.062Z,5.78
2022-10-21T10:46:20.347Z,5.20
2022-10-21T10:52:17.214Z,4.50
2022-10-21T10:58:05.888Z,5.55
2022-10-21T11:03:55.645Z,4.38
2022-10-21T11:09:27.591Z,4.50
2022-10-21T11:14:59.914Z,5.05
2022-10-21T11:20:39.110Z,4.95
2022-10-21T11:26:20.106Z,4.93
2022-10-21T11:32:36.101Z,6.55
2022-10-21T11:38:30.858Z,5.72
2022-10-21T11:44:13.907Z,4.93
2022-10-21T11:50:05.529Z,4.55
2022-10-21T11:55:46.091Z,4.25
2022-10-21T12:01:56.637Z,4.57
2022-10-21T12:07:44.707Z,5.05
2022-10-21T12:13:25.224Z,5.32
2022-10-21T12:18:58.958Z,4.82
2022-10-21T12:25:08.818Z,4.72
2022-10-21T12:30:39.718Z,6.18
2022-10-21T12:36:13.585Z,7.45
2022-10-21T12:41:47.053Z,5.75
2022-10-21T12:47:44.111Z,4.57
2022-10-21T12:53:42.268Z,4.57
2022-10-21T12:59:38.121Z,4.75
2022-10-21T13:05:09.360Z,4.97
2022-10-21T13:10:40.548Z,4.38
2022-10-21T13:16:20.827Z,4.15
2022-10-21T13:22:10.739Z,5.50
2022-10-21T13:27:47.129Z,4.88
2022-10-21T13:33:22.947Z,5.00
2022-10-21T13:38:55.675Z,5.35
2022-10-21T13:44:43.751Z,4.50
2022-10-21T13:50:28.673Z,5.97
2022-10-21T13:56:05.348Z,4.97
2022-10-21T14:01:56.468Z,5.82
2022-10-21T14:07:28.328Z,4.45
2022-10-21T14:18:45.602Z,4.93
2022-10-21T14:24:37.023Z,6.25
2022-10-21T14:30:11.931Z,6.68
2022-10-21T14:35:43.123Z,5.15
2022-10-21T14:41:18.169Z,5.32
2022-10-21T14:46:51.412Z,6.10
2022-10-21T14:52:25.424Z,5.45
2022-10-21T14:58:03.186Z,5.57
2022-10-21T15:03:47.799Z,5.05
2022-10-21T15:09:20.172Z,5.13
2022-10-21T15:14:51.647Z,6.20
2022-10-21T15:20:24.584Z,7.18
2022-10-21T15:26:23.801Z,6.37
2022-10-21T15:31:57.308Z,5.90
2022-10-21T15:37:28.543Z,5.32
2022-10-21T15:42:59.671Z,6.65
2022-10-21T15:48:30.864Z,6.63
2022-10-21T15:54:01.747Z,5.75
2022-10-21T15:59:33.836Z,4.97
2022-10-21T16:05:05.430Z,7.28
2022-10-21T16:10:37.383Z,6.88
2022-10-21T16:16:27.656Z,7.68
2022-10-21T16:21:58.881Z,6.47
2022-10-21T16:27:43.736Z,5.93
2022-10-21T16:33:21.491Z,6.82
2022-10-21T16:38:53.409Z,6.70
2022-10-21T16:44:24.692Z,6.82
2022-10-21T16:49:58.310Z,6.57
2022-10-21T17:01:00.407Z,9.38
2022-10-21T17:06:31.826Z,9.07
2022-10-21T17:12:04.637Z,8.23
2022-10-21T17:17:37.090Z,11.23
2022-10-21T17:23:10.908Z,8.25
2022-10-21T17:28:41.868Z,6.72
2022-10-21T17:34:25.836Z,8.15
2022-10-21T17:39:57.135Z,10.15
2022-10-21T17:45:28.421Z,9.45
2022-10-21T17:51:02.059Z,7.22
2022-10-21T17:56:33.104Z,6.88
2022-10-21T18:02:04.344Z,8.77
2022-10-21T18:07:35.615Z,7.40
2022-10-21T18:13:06.492Z,7.68
2022-10-21T18:18:38.422Z,10.45
2022-10-21T18:24:12.471Z,8.23
2022-10-21T18:29:44.164Z,7.60
2022-10-21T18:35:16.066Z,9.73
2022-10-21T18:40:56.298Z,8.48
2022-10-21T18:46:34.884Z,10.93
2022-10-21T18:52:06.143Z,8.18
2022-10-21T18:57:37.324Z,9.85
2022-10-21T19:03:08.953Z,8.35
2022-10-21T19:08:39.961Z,9.02
2022-10-21T19:14:14.154Z,7.55
2022-10-21T19:19:45.958Z,9.98
2022-10-21T19:25:17.933Z,8.43
2022-10-21T19:30:49.176Z,8.45
2022-10-21T19:36:20.442Z,7.90
2022-10-21T19:41:51.877Z,9.10
2022-10-21T19:47:23.199Z,8.68
2022-10-21T19:52:54.107Z,9.10
2022-10-21T19:58:25.325Z,9.15
2022-10-21T20:03:56.252Z,9.13
2022-10-21T20:09:27.385Z,8.45
2022-10-21T20:14:58.412Z,8.50
2022-10-21T20:20:29.558Z,7.32
2022-10-21T20:26:00.510Z,8.60
2022-10-21T20:31:31.574Z,8.80
2022-10-21T20:37:02.921Z,9.02
2022-10-21T20:42:34.486Z,8.50
2022-10-21T20:48:05.516Z,9.57
2022-10-21T20:53:37.324Z,8.00
2022-10-21T20:59:12.421Z,9.52
2022-10-21T21:04:43.426Z,8.20
2022-10-21T21:10:14.505Z,8.15
2022-10-21T21:15:45.756Z,9.00
2022-10-21T21:21:18.637Z,7.68
2022-10-21T21:26:50.422Z,7.85
2022-10-21T21:32:21.674Z,8.60
2022-10-21T21:37:52.934Z,7.20
2022-10-21T21:43:23.970Z,9.45
2022-10-21T21:49:04.768Z,8.57
2022-10-21T21:54:36.513Z,8.73
2022-10-21T22:00:08.239Z,9.70
2022-10-21T22:05:40.193Z,7.75
2022-10-21T22:11:13.690Z,8.75
2022-10-21T22:22:15.811Z,9.70
2022-10-21T22:27:46.611Z,11.77
2022-10-21T22:33:17.917Z,10.38
2022-10-21T22:38:48.993Z,13.43
2022-10-21T22:44:22.422Z,10.15
2022-10-21T22:49:53.551Z,10.87
2022-10-21T22:55:24.821Z,9.43
2022-10-21T23:06:33.938Z,10.68
2022-10-21T23:12:05.173Z,12.13
2022-10-21T23:17:36.455Z,9.27
2022-10-21T23:23:07.746Z,11.32
2022-10-21T23:28:38.903Z,8.77
2022-10-21T23:34:10.482Z,9.55
2022-10-21T23:39:41.634Z,10.38
2022-10-21T23:45:12.732Z,9.13
2022-10-21T23:50:44.680Z,9.13
2022-10-21T23:56:16.413Z,9.68
